Time;durP1;ratioP1;P1;durP2;ratioP2;P2;SDS_P1;SDS_P2;PMS_P1;PMS_P2;Temp;Humidity;BMP_temperature;BMP_pressure;BME280_temperature;BME280_humidity;BME280_pressure;Samples;Min_cycle;Max_cycle;Signal;HPM_P1;HPM_P2
2022/10/23 00:01:20;;;;;;;22.03;9.50;;;12.60;39.80;;;;;;4998683;28;20487;-61
2022/10/23 00:03:51;;;;;;;49.70;9.63;;;12.60;39.90;;;;;;4992192;28;20472;-61
2022/10/23 00:06:18;;;;;;;11.40;8.17;;;12.60;40.10;;;;;;5004613;28;20459;-60
2022/10/23 00:08:46;;;;;;;27.20;7.47;;;12.60;40.10;;;;;;4996645;28;20472;-60
2022/10/23 00:11:16;;;;;;;31.13;8.27;;;12.50;40.20;;;;;;5000502;28;20942;-60
2022/10/23 00:13:43;;;;;;;13.70;7.90;;;12.50;40.40;;;;;;4989020;28;20464;-60
2022/10/23 00:16:10;;;;;;;25.30;7.87;;;12.50;40.40;;;;;;4999323;28;20885;-60
2022/10/23 00:18:38;;;;;;;16.87;5.60;;;12.50;40.60;;;;;;4998105;28;20979;-61
2022/10/23 00:21:09;;;;;;;10.23;6.30;;;12.50;40.50;;;;;;4999894;28;21034;-60
2022/10/23 00:23:36;;;;;;;12.00;6.20;;;12.50;40.50;;;;;;4998684;28;20475;-60
2022/10/23 00:26:03;;;;;;;18.30;5.97;;;12.50;40.40;;;;;;4994722;28;20831;-61
2022/10/23 00:28:30;;;;;;;13.93;6.40;;;12.50;40.40;;;;;;5002270;28;20470;-60
2022/10/23 00:30:57;;;;;;;13.63;6.50;;;12.50;40.40;;;;;;4999179;28;20484;-61
2022/10/23 00:33:24;;;;;;;12.83;6.03;;;12.40;40.10;;;;;;5000550;28;20473;-61
2022/10/23 00:35:50;;;;;;;7.00;4.70;;;12.40;40.00;;;;;;4996745;22;20496;-63
2022/10/23 00:38:18;;;;;;;7.73;5.47;;;12.40;40.10;;;;;;4958546;28;20477;-62
2022/10/23 00:40:45;;;;;;;10.03;5.33;;;12.30;40.00;;;;;;4967835;28;20485;-64
2022/10/23 00:43:19;;;;;;;7.77;5.93;;;12.30;39.90;;;;;;4966097;28;20474;-62
2022/10/23 00:45:45;;;;;;;9.10;6.20;;;12.30;40.10;;;;;;4961333;28;20488;-62
2022/10/23 00:48:13;;;;;;;7.20;5.60;;;12.20;39.90;;;;;;4971334;28;21044;-62
2022/10/23 00:50:40;;;;;;;8.63;6.13;;;12.20;39.90;;;;;;4962600;28;20885;-62
2022/10/23 00:53:09;;;;;;;10.53;6.30;;;12.20;40.00;;;;;;4970275;28;20470;-62
2022/10/23 00:55:40;;;;;;;14.10;5.80;;;12.20;40.60;;;;;;4962529;28;20484;-62
2022/10/23 00:58:07;;;;;;;6.77;5.77;;;12.20;40.00;;;;;;4966395;28;20598;-61
2022/10/23 01:00:43;;;;;;;7.13;4.90;;;12.10;40.00;;;;;;4959054;28;20976;-62
2022/10/23 01:03:10;;;;;;;9.83;5.97;;;12.10;40.00;;;;;;4962991;28;20458;-62
2022/10/23 01:05:44;;;;;;;13.67;5.73;;;12.10;40.00;;;;;;4956644;28;20478;-62
2022/10/23 01:08:18;;;;;;;7.00;5.03;;;12.00;40.00;;;;;;4964677;28;20468;-62
2022/10/23 01:10:52;;;;;;;10.90;5.03;;;12.00;40.20;;;;;;4964022;28;20466;-62
2022/10/23 01:13:30;;;;;;;7.20;4.83;;;12.00;40.10;;;;;;4961381;28;20816;-61
2022/10/23 01:16:05;;;;;;;6.70;4.50;;;12.00;40.20;;;;;;4962492;28;20485;-62
2022/10/23 01:18:39;;;;;;;7.10;5.10;;;12.00;40.10;;;;;;4966725;28;20461;-62
2022/10/23 01:21:12;;;;;;;8.90;6.03;;;12.00;40.10;;;;;;4964013;28;20476;-62
2022/10/23 01:23:56;;;;;;;8.70;5.50;;;12.00;40.00;;;;;;4963169;28;20480;-62
2022/10/23 01:26:39;;;;;;;15.63;5.73;;;12.10;40.10;;;;;;4963161;28;20490;-62
2022/10/23 01:29:14;;;;;;;8.60;6.33;;;12.00;39.80;;;;;;4967464;28;20881;-62
2022/10/23 01:31:46;;;;;;;19.93;6.80;;;12.00;39.90;;;;;;4960093;28;21161;-62
2022/10/23 01:34:16;;;;;;;19.97;6.73;;;12.00;39.80;;;;;;4968661;28;20469;-62
2022/10/23 01:36:47;;;;;;;14.57;5.83;;;12.00;39.90;;;;;;4963258;28;20481;-61
2022/10/23 01:39:19;;;;;;;8.80;4.87;;;12.00;39.90;;;;;;4961091;28;20470;-62
2022/10/23 01:41:50;;;;;;;7.50;4.30;;;11.90;40.10;;;;;;4963477;28;20476;-62
2022/10/23 01:44:24;;;;;;;6.37;4.53;;;11.90;40.10;;;;;;4964779;28;20464;-62
2022/10/23 01:46:53;;;;;;;7.87;4.83;;;11.80;40.00;;;;;;4966741;28;20505;-62
2022/10/23 01:49:22;;;;;;;6.90;4.67;;;11.80;39.70;;;;;;4961637;28;20480;-62
2022/10/23 01:51:53;;;;;;;10.93;5.13;;;11.80;39.40;;;;;;4966429;28;20458;-62
2022/10/23 01:54:25;;;;;;;8.23;5.37;;;11.80;39.20;;;;;;4962540;28;20469;-62
2022/10/23 01:56:54;;;;;;;11.20;5.30;;;11.80;38.90;;;;;;4967229;28;20485;-62
2022/10/23 01:59:26;;;;;;;7.57;5.20;;;11.80;38.80;;;;;;4960116;28;20469;-62
2022/10/23 02:01:58;;;;;;;9.47;5.93;;;11.70;38.80;;;;;;4956106;28;20485;-62
2022/10/23 02:04:29;;;;;;;12.77;5.70;;;11.70;38.90;;;;;;4972067;28;20473;-62
2022/10/23 02:06:56;;;;;;;9.87;5.80;;;11.60;38.90;;;;;;4964261;28;20477;-62
2022/10/23 02:09:24;;;;;;;9.17;5.00;;;11.50;39.00;;;;;;4962510;28;20982;-62
2022/10/23 02:11:57;;;;;;;12.00;4.80;;;11.50;39.10;;;;;;4961161;28;20493;-62
2022/10/23 02:14:36;;;;;;;14.20;6.40;;;11.50;39.70;;;;;;4960069;28;20813;-62
2022/10/23 02:17:10;;;;;;;8.93;5.50;;;11.40;39.20;;;;;;4958802;28;20489;-62
2022/10/23 02:19:43;;;;;;;9.30;6.93;;;11.40;39.20;;;;;;4950802;28;20466;-62
2022/10/23 02:22:14;;;;;;;7.70;5.33;;;11.30;39.80;;;;;;4965976;28;20474;-62
2022/10/23 02:24:46;;;;;;;7.53;5.23;;;11.30;39.20;;;;;;4965693;28;20472;-62
2022/10/23 02:27:16;;;;;;;10.33;5.70;;;11.30;39.40;;;;;;4965269;28;20496;-62
2022/10/23 02:29:50;;;;;;;8.30;5.30;;;11.30;39.40;;;;;;4970166;28;20469;-62
2022/10/23 02:32:19;;;;;;;17.87;6.63;;;11.20;39.40;;;;;;4963634;28;20853;-62
2022/10/23 02:34:46;;;;;;;13.03;6.43;;;11.30;39.40;;;;;;4965730;28;20465;-62
2022/10/23 02:37:12;;;;;;;19.60;6.60;;;11.30;39.80;;;;;;4965850;28;20952;-62
2022/10/23 02:39:39;;;;;;;15.03;6.73;;;11.20;39.90;;;;;;4968677;28;21280;-62
2022/10/23 02:42:11;;;;;;;16.10;6.33;;;11.20;40.20;;;;;;4967113;28;20470;-62
2022/10/23 02:44:49;;;;;;;16.47;6.37;;;11.10;40.40;;;;;;4966327;28;20843;-61
2022/10/23 02:47:31;;;;;;;7.47;5.73;;;11.10;40.70;;;;;;4965601;28;20468;-62
2022/10/23 02:50:07;;;;;;;18.90;5.93;;;11.00;41.30;;;;;;4964398;28;20469;-62
2022/10/23 02:52:41;;;;;;;23.33;6.40;;;11.00;40.80;;;;;;4965095;28;20468;-62
2022/10/23 02:55:21;;;;;;;14.37;6.03;;;10.90;41.00;;;;;;4963355;28;20560;-62
2022/10/23 02:57:52;;;;;;;16.20;6.13;;;10.80;41.30;;;;;;4962099;28;20474;-62
2022/10/23 03:00:22;;;;;;;7.40;5.47;;;10.80;41.60;;;;;;4965731;28;20486;-62
2022/10/23 03:02:56;;;;;;;11.33;5.80;;;10.70;41.90;;;;;;4963069;28;20477;-62
2022/10/23 03:05:28;;;;;;;10.80;5.77;;;10.70;42.30;;;;;;4963963;28;20492;-62
2022/10/23 03:07:55;;;;;;;11.70;5.50;;;10.70;42.30;;;;;;4968267;28;20466;-62
2022/10/23 03:10:22;;;;;;;14.40;6.20;;;10.70;42.40;;;;;;4963287;28;20458;-62
2022/10/23 03:12:48;;;;;;;10.60;5.80;;;10.70;42.60;;;;;;4964937;28;20495;-62
2022/10/23 03:15:16;;;;;;;13.10;5.50;;;10.70;42.50;;;;;;4962248;28;20485;-62
2022/10/23 03:17:44;;;;;;;16.67;5.60;;;10.70;42.60;;;;;;4966257;28;20494;-62
2022/10/23 03:20:11;;;;;;;32.57;6.13;;;10.70;42.50;;;;;;4969276;28;20490;-61
2022/10/23 03:22:38;;;;;;;9.20;5.30;;;10.60;42.30;;;;;;4964533;28;20469;-62
2022/10/23 03:25:06;;;;;;;7.27;5.13;;;10.60;43.00;;;;;;4969026;28;20481;-61
2022/10/23 03:27:33;;;;;;;6.50;5.07;;;10.60;42.40;;;;;;4967237;28;20488;-62
2022/10/23 03:30:00;;;;;;;7.43;5.53;;;10.60;42.40;;;;;;4963215;28;20484;-62
2022/10/23 03:32:27;;;;;;;7.70;5.47;;;10.60;42.40;;;;;;4965611;28;20489;-62
2022/10/23 03:34:55;;;;;;;11.93;4.97;;;10.70;42.40;;;;;;4961679;28;20474;-62
2022/10/23 03:37:22;;;;;;;7.77;5.70;;;10.70;42.20;;;;;;4969780;28;20469;-62
2022/10/23 03:39:49;;;;;;;8.37;6.33;;;10.70;42.00;;;;;;4969715;28;20468;-61
2022/10/23 03:42:15;;;;;;;8.80;5.97;;;10.80;42.10;;;;;;4966034;28;20474;-62
2022/10/23 03:44:42;;;;;;;7.33;5.40;;;10.80;41.60;;;;;;4963706;28;20993;-62
2022/10/23 03:47:10;;;;;;;10.17;4.60;;;10.80;41.40;;;;;;4966766;28;20458;-62
2022/10/23 03:49:37;;;;;;;6.67;5.30;;;10.90;41.30;;;;;;4963366;28;20539;-62
2022/10/23 03:52:06;;;;;;;8.80;6.27;;;10.90;41.30;;;;;;4968007;28;21080;-62
2022/10/23 03:54:34;;;;;;;9.43;5.67;;;10.90;41.20;;;;;;4967301;28;20472;-62
2022/10/23 03:57:01;;;;;;;7.33;4.90;;;10.90;41.00;;;;;;4967119;28;20478;-62
2022/10/23 03:59:28;;;;;;;7.07;4.80;;;10.90;40.70;;;;;;4968588;28;20465;-63
2022/10/23 04:01:55;;;;;;;7.33;4.77;;;11.00;40.70;;;;;;4958252;28;21036;-62
2022/10/23 04:04:22;;;;;;;9.03;4.40;;;11.00;40.60;;;;;;4962356;28;20463;-62
2022/10/23 04:06:48;;;;;;;8.10;4.97;;;11.00;40.40;;;;;;4967472;28;20489;-62
2022/10/23 04:09:16;;;;;;;7.50;4.57;;;11.00;40.30;;;;;;4966974;28;20462;-62
2022/10/23 04:11:43;;;;;;;9.83;4.67;;;11.00;40.20;;;;;;4963787;28;20454;-62
2022/10/23 04:14:12;;;;;;;6.40;4.33;;;11.10;40.10;;;;;;4963622;28;20565;-61
2022/10/23 04:16:38;;;;;;;6.33;4.43;;;11.10;40.00;;;;;;4961477;28;21039;-62
2022/10/23 04:19:06;;;;;;;10.60;5.40;;;11.10;39.80;;;;;;4970374;28;20946;-62
2022/10/23 04:21:32;;;;;;;6.90;5.30;;;11.10;39.70;;;;;;4959274;28;20601;-62
2022/10/23 04:23:59;;;;;;;8.53;6.10;;;11.10;39.70;;;;;;4964511;28;20819;-62
2022/10/23 04:26:27;;;;;;;16.60;5.90;;;11.00;39.70;;;;;;4968483;28;20978;-62
2022/10/23 04:28:54;;;;;;;10.43;5.50;;;11.00;39.70;;;;;;4970009;28;21065;-61
2022/10/23 04:31:21;;;;;;;24.03;5.70;;;11.20;39.70;;;;;;4962781;28;20485;-62
2022/10/23 04:33:48;;;;;;;7.73;5.57;;;11.10;39.80;;;;;;4964814;28;20458;-62
2022/10/23 04:36:14;;;;;;;15.63;5.50;;;11.00;39.80;;;;;;4964798;28;20515;-62
2022/10/23 04:38:41;;;;;;;19.87;5.50;;;11.00;39.90;;;;;;4965538;28;20465;-61
2022/10/23 04:41:08;;;;;;;8.57;4.60;;;11.00;40.10;;;;;;4966582;28;20485;-62
2022/10/23 04:43:36;;;;;;;8.60;5.37;;;11.00;40.20;;;;;;4961061;28;20474;-62
2022/10/23 04:46:03;;;;;;;10.60;5.70;;;11.00;40.20;;;;;;4964417;28;20850;-62
2022/10/23 04:48:30;;;;;;;13.40;5.30;;;11.00;40.30;;;;;;4961900;28;20835;-70
2022/10/23 04:50:57;;;;;;;27.03;5.50;;;11.00;40.50;;;;;;4963121;28;20540;-62
2022/10/23 04:53:24;;;;;;;11.20;5.40;;;10.90;40.70;;;;;;4959964;28;20835;-62
2022/10/23 04:55:52;;;;;;;16.80;6.03;;;10.90;40.70;;;;;;4965189;28;20858;-62
2022/10/23 04:58:19;;;;;;;8.57;5.60;;;10.90;41.50;;;;;;4957782;28;20469;-62
2022/10/23 05:00:48;;;;;;;17.77;5.10;;;10.90;41.00;;;;;;4960586;28;20477;-62
2022/10/23 05:03:17;;;;;;;12.73;5.37;;;10.80;41.10;;;;;;4963929;28;20473;-62
2022/10/23 05:05:45;;;;;;;14.23;5.80;;;10.70;41.40;;;;;;4970315;28;20982;-62
2022/10/23 05:08:12;;;;;;;15.20;5.80;;;10.70;41.80;;;;;;4962020;28;20546;-61
2022/10/23 05:10:40;;;;;;;11.00;5.43;;;10.60;42.00;;;;;;4964938;28;20494;-62
2022/10/23 05:13:07;;;;;;;14.47;5.07;;;10.70;42.20;;;;;;4965945;28;20647;-62
2022/10/23 05:15:34;;;;;;;13.00;5.93;;;10.70;42.30;;;;;;4967206;28;20488;-62
2022/10/23 05:18:08;;;;;;;11.43;5.90;;;10.60;42.20;;;;;;4965923;28;20473;-62
2022/10/23 05:20:37;;;;;;;22.20;5.80;;;10.60;42.50;;;;;;4963413;28;20475;-62
2022/10/23 05:23:09;;;;;;;11.87;6.13;;;10.70;42.60;;;;;;4965308;28;20475;-62
2022/10/23 05:25:36;;;;;;;13.93;6.13;;;10.60;42.50;;;;;;4965329;28;20481;-62
2022/10/23 05:28:03;;;;;;;31.33;6.97;;;10.60;42.60;;;;;;4970930;28;20540;-62
2022/10/23 05:30:31;;;;;;;24.20;5.97;;;10.60;42.90;;;;;;4971218;28;20504;-62
2022/10/23 05:33:00;;;;;;;15.03;6.27;;;10.60;42.90;;;;;;4965111;28;20461;-62
2022/10/23 05:35:30;;;;;;;12.03;5.63;;;10.50;43.10;;;;;;4963050;28;20505;-62
2022/10/23 05:37:58;;;;;;;16.43;6.97;;;10.50;43.30;;;;;;4968384;28;20467;-62
2022/10/23 05:40:26;;;;;;;8.60;5.60;;;10.40;43.40;;;;;;4965509;28;20496;-62
2022/10/23 05:42:52;;;;;;;7.30;5.40;;;10.40;43.50;;;;;;4963352;28;20486;-62
2022/10/23 05:45:19;;;;;;;11.60;5.50;;;10.50;43.70;;;;;;4967765;28;20481;-62
2022/10/23 05:47:47;;;;;;;14.40;5.00;;;10.50;43.60;;;;;;4970264;28;20470;-62
2022/10/23 05:50:15;;;;;;;6.30;4.43;;;10.50;43.50;;;;;;4962109;28;20468;-62
2022/10/23 05:52:46;;;;;;;7.77;4.80;;;10.50;43.50;;;;;;4966211;28;20464;-61
2022/10/23 05:55:13;;;;;;;16.83;6.00;;;10.60;43.40;;;;;;4962733;28;20501;-62
2022/10/23 05:57:40;;;;;;;11.87;6.00;;;10.60;43.10;;;;;;4975774;28;20969;-62
2022/10/23 06:00:08;;;;;;;13.33;5.63;;;10.60;42.90;;;;;;4970669;28;20544;-62
2022/10/23 06:02:36;;;;;;;20.40;6.50;;;10.60;43.10;;;;;;4968795;28;20477;-62
2022/10/23 06:05:02;;;;;;;67.23;9.93;;;10.60;42.90;;;;;;4970336;28;20484;-63
2022/10/23 06:07:30;;;;;;;10.17;6.63;;;10.60;43.00;;;;;;4968014;28;21214;-60
2022/10/23 06:09:58;;;;;;;19.53;6.00;;;10.60;43.30;;;;;;4969723;28;20977;-59
2022/10/23 06:12:25;;;;;;;10.23;6.23;;;10.60;43.50;;;;;;4967242;28;20454;-60
2022/10/23 06:14:52;;;;;;;39.70;8.20;;;10.60;43.70;;;;;;4963365;28;20470;-60
2022/10/23 06:17:19;;;;;;;21.63;6.57;;;10.60;43.70;;;;;;4967325;28;20461;-60
2022/10/23 06:19:45;;;;;;;9.37;5.90;;;10.60;43.50;;;;;;4960380;28;20958;-60
2022/10/23 06:22:12;;;;;;;27.47;6.97;;;10.60;43.70;;;;;;4967457;28;20482;-60
2022/10/23 06:24:39;;;;;;;23.83;6.23;;;10.70;43.80;;;;;;4971904;28;20978;-60
2022/10/23 06:27:07;;;;;;;17.57;5.77;;;10.70;43.80;;;;;;4973957;28;20477;-60
2022/10/23 06:29:34;;;;;;;12.83;5.50;;;10.80;43.60;;;;;;4971990;28;20461;-61
2022/10/23 06:32:01;;;;;;;14.20;6.20;;;10.80;43.70;;;;;;4970426;28;22430;-60
2022/10/23 06:34:27;;;;;;;10.63;5.70;;;10.90;43.50;;;;;;4975681;28;20461;-60
2022/10/23 06:36:54;;;;;;;11.50;5.73;;;11.00;43.40;;;;;;4978387;28;20493;-63
2022/10/23 06:39:21;;;;;;;12.90;5.80;;;11.10;43.40;;;;;;4972178;28;20848;-60
2022/10/23 06:41:48;;;;;;;28.17;6.30;;;11.20;43.00;;;;;;4971122;28;20478;-61
2022/10/23 06:44:16;;;;;;;9.50;5.83;;;11.30;42.70;;;;;;4968922;28;20987;-60
2022/10/23 06:46:45;;;;;;;13.73;5.30;;;11.30;42.70;;;;;;4959860;28;20488;-60
2022/10/23 06:49:13;;;;;;;22.37;6.40;;;11.40;42.10;;;;;;4966581;28;20461;-60
2022/10/23 06:51:40;;;;;;;18.90;5.30;;;11.40;42.50;;;;;;4958258;28;20465;-61
2022/10/23 06:54:07;;;;;;;43.47;7.30;;;11.50;41.90;;;;;;4967242;28;20466;-61
2022/10/23 06:56:34;;;;;;;8.50;4.03;;;11.50;41.60;;;;;;4966351;28;20490;-62
2022/10/23 06:59:01;;;;;;;50.50;8.27;;;11.60;41.50;;;;;;4964465;28;20855;-64
2022/10/23 07:01:29;;;;;;;22.43;5.70;;;11.60;41.20;;;;;;4968978;28;20482;-64
2022/10/23 07:03:56;;;;;;;10.80;4.40;;;11.60;40.90;;;;;;4968413;28;20465;-63
2022/10/23 07:06:23;;;;;;;45.90;6.47;;;11.70;40.80;;;;;;4964625;28;20572;-62
2022/10/23 07:08:49;;;;;;;10.53;4.43;;;11.80;40.70;;;;;;4963870;28;20461;-62
2022/10/23 07:11:16;;;;;;;53.93;7.30;;;11.90;40.00;;;;;;4961012;28;20468;-63
2022/10/23 07:13:43;;;;;;;6.63;4.00;;;11.90;39.20;;;;;;4966222;28;20466;-66
2022/10/23 07:16:12;;;;;;;6.40;4.17;;;11.90;39.30;;;;;;4960975;28;20585;-64
2022/10/23 07:18:40;;;;;;;12.33;4.90;;;12.00;39.80;;;;;;4967089;28;20480;-66
2022/10/23 07:21:07;;;;;;;30.43;5.50;;;12.00;39.90;;;;;;4966792;28;20466;-60
2022/10/23 07:23:34;;;;;;;10.73;3.77;;;12.10;39.20;;;;;;4962019;28;20468;-64
2022/10/23 07:26:08;;;;;;;33.07;4.90;;;12.20;38.90;;;;;;4961659;28;20484;-64
2022/10/23 07:28:35;;;;;;;14.73;4.07;;;12.20;38.90;;;;;;4964034;28;20457;-62
2022/10/23 07:31:02;;;;;;;8.57;4.10;;;12.30;39.10;;;;;;4965242;28;20520;-62
2022/10/23 07:33:29;;;;;;;6.70;4.10;;;12.30;38.80;;;;;;4967377;28;20462;-62
2022/10/23 07:35:57;;;;;;;6.10;4.03;;;12.40;38.80;;;;;;4965529;28;20500;-62
2022/10/23 07:38:24;;;;;;;8.87;4.80;;;12.50;38.50;;;;;;4965051;28;20465;-62
2022/10/23 07:40:51;;;;;;;16.30;4.50;;;12.60;38.50;;;;;;4963253;28;20468;-62
2022/10/23 07:43:19;;;;;;;60.30;7.40;;;12.70;38.60;;;;;;4966331;28;20866;-62
2022/10/23 07:45:48;;;;;;;18.40;4.17;;;12.80;38.40;;;;;;4969904;28;20944;-62
2022/10/23 07:48:15;;;;;;;6.20;3.87;;;12.80;37.70;;;;;;4968828;28;20461;-63
2022/10/23 07:50:41;;;;;;;6.23;4.27;;;12.80;37.50;;;;;;4971360;28;20844;-62
2022/10/23 07:53:16;;;;;;;23.70;5.53;;;12.80;37.60;;;;;;4965343;28;20458;-62
2022/10/23 07:55:43;;;;;;;6.00;3.90;;;12.90;37.50;;;;;;4965425;28;20484;-62
2022/10/23 07:58:10;;;;;;;15.73;5.03;;;12.90;37.40;;;;;;4962835;28;20462;-62
2022/10/23 08:00:39;;;;;;;7.63;4.70;;;13.00;37.40;;;;;;4962832;28;20473;-62
2022/10/23 08:03:06;;;;;;;10.13;4.00;;;13.10;37.30;;;;;;4964951;28;20997;-62
2022/10/23 08:05:33;;;;;;;6.47;4.20;;;13.20;37.20;;;;;;4965082;28;20481;-66
2022/10/23 08:08:00;;;;;;;5.77;3.80;;;13.20;36.90;;;;;;4966529;28;20481;-64
2022/10/23 08:10:28;;;;;;;9.13;4.03;;;13.30;36.80;;;;;;4965711;28;20709;-62
2022/10/23 08:12:55;;;;;;;10.53;4.07;;;13.40;36.80;;;;;;4962588;28;20461;-62
2022/10/23 08:15:22;;;;;;;7.30;4.17;;;13.40;36.50;;;;;;4966985;28;21275;-62
2022/10/23 08:17:48;;;;;;;13.10;4.60;;;13.50;36.50;;;;;;4962845;28;20463;-63
2022/10/23 08:20:15;;;;;;;11.43;4.73;;;13.50;36.40;;;;;;4964368;28;21000;-64
2022/10/23 08:22:42;;;;;;;13.37;4.87;;;13.60;36.20;;;;;;4965677;28;20482;-61
2022/10/23 08:25:09;;;;;;;12.13;4.53;;;13.70;36.20;;;;;;4965062;28;20482;-64
2022/10/23 08:27:38;;;;;;;7.30;4.00;;;13.70;36.10;;;;;;4966556;28;20476;-64
2022/10/23 08:30:06;;;;;;;30.77;5.50;;;13.90;36.10;;;;;;4969280;28;20465;-64
2022/10/23 08:32:32;;;;;;;16.20;4.83;;;13.90;35.70;;;;;;4962473;28;20480;-62
2022/10/23 08:34:59;;;;;;;14.50;4.07;;;14.00;34.70;;;;;;4957177;28;20476;-65
2022/10/23 08:37:26;;;;;;;8.50;4.13;;;13.90;34.60;;;;;;4964037;28;20465;-64
2022/10/23 08:39:53;;;;;;;6.43;4.17;;;14.00;34.70;;;;;;4966487;28;20978;-64
2022/10/23 08:42:22;;;;;;;6.40;3.80;;;14.00;34.70;;;;;;4960818;28;20493;-67
2022/10/23 08:44:58;;;;;;;21.00;4.33;;;14.00;34.80;;;;;;4960190;28;20466;-66
2022/10/23 08:47:30;;;;;;;9.80;3.80;;;14.10;34.80;;;;;;4963618;28;20469;-61
2022/10/23 08:50:01;;;;;;;12.37;5.00;;;14.20;34.60;;;;;;4965362;28;20461;-68
2022/10/23 08:52:41;;;;;;;9.70;3.63;;;14.30;34.40;;;;;;4964547;28;20974;-67
2022/10/23 08:55:17;;;;;;;19.53;4.60;;;14.40;34.20;;;;;;4959929;28;20489;-69
2022/10/23 08:57:51;;;;;;;6.70;4.17;;;14.30;34.10;;;;;;4966465;28;20974;-64
2022/10/23 09:00:19;;;;;;;7.67;3.50;;;14.30;33.60;;;;;;4964654;28;20464;-63
2022/10/23 09:02:48;;;;;;;8.00;3.90;;;14.30;33.60;;;;;;4964318;28;20861;-63
2022/10/23 09:05:19;;;;;;;13.00;4.80;;;14.40;33.80;;;;;;4955111;28;20485;-64
2022/10/23 09:08:11;;;;;;;8.03;4.80;;;14.40;33.80;;;;;;4961587;28;20537;-64
2022/10/23 09:11:00;;;;;;;8.17;5.37;;;14.50;34.10;;;;;;4958240;28;20457;-64
2022/10/23 09:13:40;;;;;;;8.20;4.53;;;14.70;33.80;;;;;;4956358;28;20458;-65
2022/10/23 09:16:18;;;;;;;6.37;4.90;;;14.90;33.40;;;;;;4958187;28;20824;-64
2022/10/23 09:18:48;;;;;;;9.30;4.80;;;15.10;33.70;;;;;;4960191;28;20830;-64
2022/10/23 09:21:15;;;;;;;7.20;4.70;;;15.20;32.40;;;;;;4958155;28;20465;-64
2022/10/23 09:23:42;;;;;;;6.23;3.83;;;15.40;32.20;;;;;;4967440;28;20535;-64
2022/10/23 09:26:14;;;;;;;6.90;4.10;;;15.60;31.90;;;;;;4962563;28;20477;-65
2022/10/23 09:28:47;;;;;;;10.80;4.73;;;16.00;31.60;;;;;;4965683;28;20461;-65
2022/10/23 09:31:16;;;;;;;11.27;5.23;;;16.20;30.70;;;;;;4960978;28;20492;-65
2022/10/23 09:33:54;;;;;;;8.03;5.03;;;16.20;29.70;;;;;;4966844;28;20628;-65
2022/10/23 09:36:23;;;;;;;6.77;4.80;;;16.20;29.50;;;;;;4959929;28;20504;-66
2022/10/23 09:38:51;;;;;;;7.37;5.23;;;16.30;29.20;;;;;;4963314;28;20477;-66
2022/10/23 09:41:21;;;;;;;6.03;4.07;;;16.80;29.40;;;;;;4961873;28;20460;-67
2022/10/23 09:44:00;;;;;;;5.13;3.13;;;17.20;28.00;;;;;;4958951;28;20485;-65
2022/10/23 09:46:38;;;;;;;5.50;3.23;;;17.50;26.90;;;;;;4965428;28;20485;-66
2022/10/23 09:49:06;;;;;;;4.93;3.07;;;17.70;26.10;;;;;;4956706;28;21919;-64
2022/10/23 09:51:33;;;;;;;6.43;2.80;;;18.00;24.20;;;;;;4962585;28;20496;-68
2022/10/23 09:54:01;;;;;;;5.07;3.20;;;18.20;24.20;;;;;;4962411;28;20471;-63
2022/10/23 09:56:31;;;;;;;4.53;2.90;;;18.30;23.20;;;;;;4957339;28;21029;-67
2022/10/23 09:59:00;;;;;;;5.33;3.60;;;18.70;22.40;;;;;;4960715;28;20834;-66
2022/10/23 10:01:30;;;;;;;4.40;2.70;;;19.40;22.40;;;;;;4962064;28;20490;-66
2022/10/23 10:03:58;;;;;;;6.07;3.10;;;19.80;19.30;;;;;;4958203;28;20489;-63
2022/10/23 10:06:27;;;;;;;5.00;3.13;;;20.10;18.90;;;;;;4964259;28;20481;-62
2022/10/23 10:08:56;;;;;;;5.10;3.10;;;20.20;18.70;;;;;;4958646;28;20504;-64
2022/10/23 10:11:29;;;;;;;5.57;2.80;;;20.20;18.60;;;;;;4964167;28;20466;-64
2022/10/23 10:14:32;;;;;;;4.80;2.80;;;20.20;18.50;;;;;;4961072;28;20473;-66
2022/10/23 10:17:03;;;;;;;4.73;2.50;;;20.40;17.50;;;;;;4961282;28;20484;-63
2022/10/23 10:19:45;;;;;;;5.07;2.90;;;20.70;18.10;;;;;;4959797;28;20470;-67
2022/10/23 10:22:21;;;;;;;4.47;2.80;;;21.20;18.40;;;;;;4959916;28;20836;-67
2022/10/23 10:24:54;;;;;;;5.73;2.80;;;21.80;17.30;;;;;;4956358;28;20824;-67
2022/10/23 10:27:34;;;;;;;6.40;3.00;;;22.30;16.60;;;;;;4957929;28;20484;-69
2022/10/23 10:30:10;;;;;;;4.77;2.80;;;22.60;15.10;;;;;;4963732;28;20462;-68
2022/10/23 10:32:43;;;;;;;4.60;2.73;;;22.90;14.30;;;;;;4954838;28;20481;-69
2022/10/23 10:35:25;;;;;;;5.17;3.10;;;22.80;13.90;;;;;;4956688;28;20764;-67
2022/10/23 10:38:25;;;;;;;5.30;3.40;;;22.70;13.80;;;;;;4956804;28;20477;-66
2022/10/23 10:41:11;;;;;;;4.87;3.43;;;22.60;14.10;;;;;;4927993;28;20454;-64
2022/10/23 10:43:46;;;;;;;5.23;3.00;;;22.40;14.40;;;;;;4966213;28;20997;-68
2022/10/23 10:46:22;;;;;;;4.60;2.93;;;22.30;14.70;;;;;;4964094;28;20481;-64
2022/10/23 10:48:55;;;;;;;5.50;3.10;;;22.20;15.00;;;;;;4962648;28;20484;-62
2022/10/23 10:51:30;;;;;;;4.57;3.20;;;22.10;14.70;;;;;;4965327;28;20802;-66
2022/10/23 10:54:10;;;;;;;5.67;3.17;;;22.00;15.20;;;;;;4965662;28;20456;-66
2022/10/23 10:56:41;;;;;;;5.73;3.20;;;22.00;15.10;;;;;;4965971;28;20485;-66
2022/10/23 10:59:15;;;;;;;4.90;3.20;;;21.90;15.60;;;;;;4958180;28;21005;-66
2022/10/23 11:01:49;;;;;;;5.77;3.30;;;22.10;15.60;;;;;;4963078;28;20468;-66
2022/10/23 11:04:28;;;;;;;5.53;3.17;;;22.30;15.50;;;;;;4963162;28;20851;-67
2022/10/23 11:06:57;;;;;;;5.47;3.87;;;22.30;14.90;;;;;;4967728;28;20477;-66
2022/10/23 11:09:26;;;;;;;6.60;3.20;;;22.10;14.60;;;;;;4963536;28;20894;-66
2022/10/23 11:11:53;;;;;;;5.90;3.30;;;21.90;15.10;;;;;;4962373;28;20461;-66
2022/10/23 11:14:23;;;;;;;7.70;4.07;;;21.80;15.50;;;;;;4961433;28;20465;-69
2022/10/23 11:16:51;;;;;;;5.30;3.30;;;21.70;15.90;;;;;;4966053;28;20478;-63
2022/10/23 11:19:22;;;;;;;5.63;3.73;;;21.60;16.20;;;;;;4968386;28;20995;-62
2022/10/23 11:21:57;;;;;;;6.20;3.73;;;21.60;16.40;;;;;;4965922;28;20458;-68
2022/10/23 11:24:58;;;;;;;5.37;4.00;;;21.60;16.50;;;;;;4961278;28;20485;-66
2022/10/23 11:27:57;;;;;;;5.13;3.40;;;21.60;16.50;;;;;;4967704;28;20465;-67
2022/10/23 11:30:29;;;;;;;7.93;3.47;;;21.50;16.60;;;;;;4938854;28;20465;-67
2022/10/23 11:33:19;;;;;;;8.97;4.57;;;21.50;17.20;;;;;;4957657;28;20826;-67
2022/10/23 11:35:53;;;;;;;5.97;4.20;;;21.50;17.20;;;;;;4958466;28;20496;-67
2022/10/23 11:38:26;;;;;;;8.40;4.73;;;21.50;17.30;;;;;;4956372;28;20836;-64
2022/10/23 11:40:57;;;;;;;5.47;4.20;;;21.50;17.40;;;;;;4959362;28;20473;-64
2022/10/23 11:43:29;;;;;;;5.53;3.73;;;21.50;17.50;;;;;;4961229;28;20481;-64
2022/10/23 11:45:56;;;;;;;8.77;3.97;;;21.60;17.60;;;;;;4957793;28;20486;-64
2022/10/23 11:48:36;;;;;;;6.67;4.00;;;21.50;17.70;;;;;;4958782;28;20466;-64
2022/10/23 11:51:04;;;;;;;6.17;3.63;;;21.50;17.60;;;;;;4957800;28;20470;-64
2022/10/23 11:53:40;;;;;;;9.27;4.20;;;21.40;17.50;;;;;;4961424;28;20453;-64
2022/10/23 11:56:26;;;;;;;5.10;3.60;;;21.40;17.90;;;;;;4960276;28;20575;-64
2022/10/23 11:58:54;;;;;;;6.23;3.80;;;21.30;17.90;;;;;;4958603;28;20535;-65
2022/10/23 12:01:44;;;;;;;6.00;4.10;;;21.30;18.00;;;;;;4956065;28;20504;-64
2022/10/23 12:04:21;;;;;;;7.07;4.37;;;21.20;18.30;;;;;;4955450;28;20489;-64
2022/10/23 12:06:50;;;;;;;5.70;3.97;;;21.10;18.50;;;;;;4959362;28;20481;-64
2022/10/23 12:09:29;;;;;;;5.43;3.27;;;21.10;18.70;;;;;;4952337;28;20473;-64
2022/10/23 12:12:17;;;;;;;5.40;3.40;;;21.10;19.00;;;;;;4961212;28;20463;-64
2022/10/23 12:14:46;;;;;;;7.73;4.00;;;21.10;19.00;;;;;;4960584;28;20486;-64
2022/10/23 12:17:30;;;;;;;7.50;4.07;;;21.30;19.20;;;;;;4963551;28;21046;-64
2022/10/23 12:20:14;;;;;;;5.80;3.90;;;21.60;19.50;;;;;;4958186;28;20470;-63
2022/10/23 12:22:46;;;;;;;6.13;3.30;;;21.80;19.00;;;;;;4959509;28;20466;-63
2022/10/23 12:25:17;;;;;;;4.60;2.70;;;21.90;17.60;;;;;;4960325;28;20482;-63
2022/10/23 12:27:51;;;;;;;4.73;3.00;;;21.90;17.60;;;;;;4962462;28;20476;-63
2022/10/23 12:30:22;;;;;;;5.43;3.43;;;22.00;17.90;;;;;;4960482;28;20458;-64
2022/10/23 12:33:01;;;;;;;7.10;4.00;;;22.10;17.90;;;;;;4954208;28;20485;-63
2022/10/23 12:35:47;;;;;;;5.00;3.27;;;22.10;18.20;;;;;;4959413;28;20489;-64
2022/10/23 12:38:17;;;;;;;7.13;3.03;;;22.10;18.20;;;;;;4958986;28;20473;-63
2022/10/23 12:40:50;;;;;;;6.07;3.10;;;22.10;17.90;;;;;;4956418;28;20470;-63
2022/10/23 12:43:26;;;;;;;7.07;3.97;;;22.10;17.90;;;;;;4957314;28;20891;-63
2022/10/23 12:45:55;;;;;;;5.53;3.23;;;22.00;18.30;;;;;;4955887;28;20488;-63
2022/10/23 12:48:24;;;;;;;5.50;3.03;;;21.90;18.40;;;;;;4954856;28;20496;-63
2022/10/23 12:50:53;;;;;;;5.63;3.10;;;21.90;18.30;;;;;;4956975;28;21037;-63
2022/10/23 12:53:21;;;;;;;7.80;3.60;;;21.70;18.20;;;;;;4957487;28;20453;-63
2022/10/23 12:55:55;;;;;;;6.17;3.07;;;21.50;18.40;;;;;;4956933;28;20489;-63
2022/10/23 12:58:24;;;;;;;7.47;3.47;;;21.40;18.90;;;;;;4957295;28;20470;-63
2022/10/23 13:00:52;;;;;;;5.60;2.97;;;21.30;19.40;;;;;;4960973;28;20482;-63